createdAt,value
2022-09-17T00:03:21.409Z,97161.00
2022-09-17T00:08:24.041Z,97163.00
2022-09-17T00:13:26.731Z,97164.00
2022-09-17T00:18:29.487Z,97172.00
2022-09-17T00:23:32.140Z,97176.00
2022-09-17T00:28:34.879Z,97173.00
2022-09-17T00:33:38.012Z,97163.00
2022-09-17T00:38:40.807Z,97163.00
2022-09-17T00:43:47.353Z,97164.00
2022-09-17T00:48:50.781Z,97168.00
2022-09-17T00:53:53.467Z,97170.00
2022-09-17T00:59:00.214Z,97170.00
2022-09-17T01:04:03.583Z,97177.00
2022-09-17T01:09:39.337Z,97169.00
2022-09-17T01:15:00.423Z,97174.00
2022-09-17T01:20:27.971Z,97175.00
2022-09-17T01:25:58.567Z,97171.00
2022-09-17T01:31:31.676Z,97168.00
2022-09-17T01:37:00.578Z,97177.00
2022-09-17T01:42:41.060Z,97179.00
2022-09-17T01:47:52.136Z,97172.00
2022-09-17T01:52:56.864Z,97175.00
2022-09-17T01:58:35.619Z,97174.00
2022-09-17T02:03:44.631Z,97174.00
2022-09-17T02:09:01.995Z,97166.00
2022-09-17T02:14:10.330Z,97160.00
2022-09-17T02:19:27.067Z,97168.00
2022-09-17T02:24:38.740Z,97171.00
2022-09-17T02:29:45.460Z,97168.00
2022-09-17T02:34:48.100Z,97170.00
2022-09-17T02:39:50.807Z,97181.00
2022-09-17T02:45:12.370Z,97165.00
2022-09-17T02:50:52.154Z,97169.00
2022-09-17T02:56:00.640Z,97158.00
2022-09-17T03:01:09.093Z,97166.00
2022-09-17T03:06:12.149Z,97160.00
2022-09-17T03:11:15.129Z,97161.00
2022-09-17T03:16:18.182Z,97159.00
2022-09-17T03:21:20.864Z,97170.00
2022-09-17T03:26:24.146Z,97160.00
2022-09-17T03:31:29.591Z,97169.00
2022-09-17T03:36:32.339Z,97171.00
2022-09-17T03:41:35.016Z,97179.00
2022-09-17T03:46:38.117Z,97177.00
2022-09-17T03:51:40.796Z,97177.00
2022-09-17T03:56:43.441Z,97182.00
2022-09-17T04:01:46.218Z,97179.00
2022-09-17T04:06:49.336Z,97171.00
2022-09-17T04:11:52.076Z,97170.00
2022-09-17T04:16:54.720Z,97169.00
2022-09-17T04:21:57.336Z,97179.00
2022-09-17T04:27:01.990Z,97165.00
2022-09-17T04:32:05.032Z,97168.00
2022-09-17T04:37:07.730Z,97167.00
2022-09-17T04:42:10.346Z,97166.00
2022-09-17T04:47:13.006Z,97162.00
2022-09-17T04:52:15.623Z,97165.00
2022-09-17T04:57:18.330Z,97161.00
2022-09-17T05:02:21.103Z,97161.00
2022-09-17T05:07:23.924Z,97166.00
2022-09-17T05:12:29.227Z,97173.00
2022-09-17T05:17:34.212Z,97171.00
2022-09-17T05:22:40.364Z,97174.00
2022-09-17T05:27:43.744Z,97168.00
2022-09-17T05:32:47.247Z,97178.00
2022-09-17T05:37:49.870Z,97173.00
2022-09-17T05:42:52.529Z,97170.00
2022-09-17T05:47:56.917Z,97172.00
2022-09-17T05:53:05.781Z,97171.00
2022-09-17T05:58:18.906Z,97185.00
2022-09-17T06:03:25.084Z,97179.00
2022-09-17T06:08:29.017Z,97184.00
2022-09-17T06:13:33.065Z,97191.00
2022-09-17T06:18:35.772Z,97185.00
2022-09-17T06:23:38.520Z,97208.00
2022-09-17T06:28:41.989Z,97199.00
2022-09-17T06:33:44.816Z,97194.00
2022-09-17T06:38:47.451Z,97192.00
2022-09-17T06:43:54.433Z,97184.00
2022-09-17T06:48:57.093Z,97186.00
2022-09-17T06:54:00.809Z,97196.00
2022-09-17T06:59:06.411Z,97192.00
2022-09-17T07:04:09.128Z,97205.00
2022-09-17T07:09:12.503Z,97203.00
2022-09-17T07:14:15.328Z,97203.00
2022-09-17T07:19:18.045Z,97213.00
2022-09-17T07:24:20.767Z,97204.00
2022-09-17T07:29:26.386Z,97213.00
2022-09-17T07:34:29.167Z,97230.00
2022-09-17T07:39:32.072Z,97229.00
2022-09-17T07:44:34.838Z,97244.00
2022-09-17T07:49:37.510Z,97249.00
2022-09-17T07:54:40.200Z,97265.00
2022-09-17T07:59:42.825Z,97260.00
2022-09-17T08:04:45.485Z,97269.00
2022-09-17T08:09:48.117Z,97268.00
2022-09-17T08:14:50.863Z,97277.00
2022-09-17T08:19:54.584Z,97273.00
2022-09-17T08:24:57.312Z,97288.00
2022-09-17T08:30:00.018Z,97283.00
2022-09-17T08:35:02.774Z,97280.00
2022-09-17T08:40:05.905Z,97283.00
2022-09-17T08:45:21.265Z,97298.00
2022-09-17T08:50:39.104Z,97304.00
2022-09-17T08:55:51.530Z,97303.00
2022-09-17T09:01:02.691Z,97305.00
2022-09-17T09:06:10.527Z,97309.00
2022-09-17T09:11:22.351Z,97303.00
2022-09-17T09:16:31.004Z,97313.00
2022-09-17T09:21:48.219Z,97298.00
2022-09-17T09:27:12.963Z,97293.00
2022-09-17T09:32:18.661Z,97285.00
2022-09-17T09:37:26.159Z,97301.00
2022-09-17T09:42:34.860Z,97292.00
2022-09-17T09:47:47.969Z,97305.00
2022-09-17T09:53:16.718Z,97311.00
2022-09-17T09:58:39.872Z,97310.00
2022-09-17T10:03:46.254Z,97305.00
2022-09-17T10:08:54.790Z,97315.00
2022-09-17T10:14:25.976Z,97328.00
2022-09-17T10:19:28.656Z,97325.00
2022-09-17T10:24:34.469Z,97318.00
2022-09-17T10:29:37.221Z,97339.00
2022-09-17T10:34:43.378Z,97342.00
2022-09-17T10:39:48.779Z,97338.00
2022-09-17T10:45:00.031Z,97338.00
2022-09-17T10:50:08.308Z,97320.00
2022-09-17T10:55:19.911Z,97325.00
2022-09-17T11:00:23.919Z,97314.00
2022-09-17T11:05:41.691Z,97308.00
2022-09-17T11:11:02.497Z,97310.00
2022-09-17T11:16:39.859Z,97311.00
2022-09-17T11:22:14.829Z,97305.00
2022-09-17T11:27:31.438Z,97298.00
2022-09-17T11:32:51.811Z,97313.00
2022-09-17T11:38:10.741Z,97315.00
2022-09-17T11:43:35.558Z,97313.00
2022-09-17T11:48:48.821Z,97308.00
2022-09-17T11:54:12.052Z,97313.00
2022-09-17T11:59:33.979Z,97302.00
2022-09-17T12:04:54.564Z,97297.00
2022-09-17T12:10:19.639Z,97300.00
2022-09-17T12:15:34.331Z,97294.00
2022-09-17T12:20:42.148Z,97311.00
2022-09-17T12:25:59.841Z,97322.00
2022-09-17T12:31:14.363Z,97312.00
2022-09-17T12:36:25.134Z,97299.00
2022-09-17T12:42:06.090Z,97288.00
2022-09-17T12:47:51.662Z,97281.00
2022-09-17T12:53:00.196Z,97289.00
2022-09-17T12:58:17.858Z,97279.00
2022-09-17T13:03:47.244Z,97273.00
2022-09-17T13:09:28.028Z,97263.00
2022-09-17T13:14:31.218Z,97263.00
2022-09-17T13:19:59.666Z,97263.00
2022-09-17T13:25:15.700Z,97265.00
2022-09-17T13:30:21.036Z,97259.00
2022-09-17T13:35:23.727Z,97265.00
2022-09-17T13:40:32.025Z,97252.00
2022-09-17T13:45:54.331Z,97240.00
2022-09-17T13:50:57.334Z,97240.00
2022-09-17T13:56:05.994Z,97244.00
2022-09-17T14:01:34.778Z,97257.00
2022-09-17T14:06:37.468Z,97260.00
2022-09-17T14:11:40.558Z,97271.00
2022-09-17T14:16:50.611Z,97285.00
2022-09-17T14:21:59.728Z,97283.00
2022-09-17T14:27:26.611Z,97268.00
2022-09-17T14:32:44.420Z,97273.00
2022-09-17T14:38:00.537Z,97273.00
2022-09-17T14:43:04.176Z,97267.00
2022-09-17T14:48:20.620Z,97257.00
2022-09-17T14:53:23.526Z,97257.00
2022-09-17T14:58:40.444Z,97256.00
2022-09-17T15:03:43.203Z,97245.00
2022-09-17T15:08:49.271Z,97253.00
2022-09-17T15:13:53.247Z,97246.00
2022-09-17T15:18:58.477Z,97258.00
2022-09-17T15:24:38.755Z,97248.00
2022-09-17T15:29:46.031Z,97256.00
2022-09-17T15:35:12.202Z,97259.00
2022-09-17T15:40:39.329Z,97257.00
2022-09-17T15:45:42.682Z,97253.00
2022-09-17T15:50:54.320Z,97243.00
2022-09-17T15:56:31.317Z,97258.00
2022-09-17T16:01:34.131Z,97264.00
2022-09-17T16:06:37.926Z,97261.00
2022-09-17T16:11:44.168Z,97267.00
2022-09-17T16:16:48.128Z,97271.00
2022-09-17T16:21:50.818Z,97276.00
2022-09-17T16:26:53.507Z,97287.00
2022-09-17T16:31:56.214Z,97290.00
2022-09-17T16:36:58.942Z,97304.00
2022-09-17T16:42:01.589Z,97310.00
2022-09-17T16:47:04.430Z,97304.00
2022-09-17T16:52:07.205Z,97317.00
2022-09-17T16:57:09.921Z,97311.00
2022-09-17T17:02:12.626Z,97305.00
2022-09-17T17:07:15.512Z,97310.00
2022-09-17T17:12:18.176Z,97314.00
2022-09-17T17:17:21.418Z,97292.00
2022-09-17T17:22:24.220Z,97300.00
2022-09-17T17:27:27.009Z,97295.00
2022-09-17T17:32:29.743Z,97305.00
2022-09-17T17:37:32.413Z,97307.00
2022-09-17T17:42:38.262Z,97292.00
2022-09-17T17:47:41.251Z,97293.00
2022-09-17T17:52:48.091Z,97300.00
2022-09-17T17:58:01.137Z,97308.00
2022-09-17T18:03:04.660Z,97304.00
2022-09-17T18:08:07.346Z,97313.00
2022-09-17T18:13:10.064Z,97310.00
2022-09-17T18:18:12.728Z,97317.00
2022-09-17T18:23:15.608Z,97320.00
2022-09-17T18:28:18.287Z,97309.00
2022-09-17T18:33:25.846Z,97310.00
2022-09-17T18:38:28.672Z,97313.00
2022-09-17T18:43:33.059Z,97329.00
2022-09-17T18:48:36.657Z,97313.00
2022-09-17T18:53:39.925Z,97321.00
2022-09-17T18:58:44.827Z,97349.00
2022-09-17T19:03:47.662Z,97357.00
2022-09-17T19:08:51.428Z,97364.00
2022-09-17T19:13:54.120Z,97357.00
2022-09-17T19:18:56.867Z,97365.00
2022-09-17T19:23:59.513Z,97352.00
2022-09-17T19:29:02.203Z,97345.00
2022-09-17T19:34:05.068Z,97339.00
2022-09-17T19:39:07.767Z,97345.00
2022-09-17T19:44:10.622Z,97365.00
2022-09-17T19:49:13.971Z,97358.00
2022-09-17T19:54:16.637Z,97337.00
2022-09-17T19:59:19.280Z,97338.00
2022-09-17T20:04:22.040Z,97359.00
2022-09-17T20:09:24.715Z,97370.00
2022-09-17T20:14:28.372Z,97365.00
2022-09-17T20:19:31.084Z,97348.00
2022-09-17T20:24:34.128Z,97359.00
2022-09-17T20:29:36.873Z,97354.00
2022-09-17T20:34:39.692Z,97359.00
2022-09-17T20:39:42.581Z,97339.00
2022-09-17T20:44:45.249Z,97340.00
2022-09-17T20:49:48.169Z,97337.00
2022-09-17T20:54:50.847Z,97329.00
2022-09-17T20:59:55.657Z,97308.00
2022-09-17T21:04:58.345Z,97310.00
2022-09-17T21:10:01.113Z,97301.00
2022-09-17T21:15:04.207Z,97293.00
2022-09-17T21:20:07.474Z,97293.00
2022-09-17T21:25:10.239Z,97298.00
2022-09-17T21:30:13.361Z,97283.00
2022-09-17T21:35:16.031Z,97292.00
2022-09-17T21:40:18.692Z,97287.00
2022-09-17T21:45:21.359Z,97276.00
2022-09-17T21:50:24.067Z,97274.00
2022-09-17T21:55:27.723Z,97274.00
2022-09-17T22:00:31.381Z,97281.00
2022-09-17T22:05:34.083Z,97279.00
2022-09-17T22:10:36.819Z,97298.00
2022-09-17T22:15:39.532Z,97300.00
2022-09-17T22:20:42.217Z,97303.00
2022-09-17T22:25:45.044Z,97298.00
2022-09-17T22:30:47.846Z,97303.00
2022-09-17T22:35:50.569Z,97279.00
2022-09-17T22:40:54.642Z,97274.00
2022-09-17T22:45:57.261Z,97283.00
2022-09-17T22:51:01.183Z,97275.00
2022-09-17T22:56:06.483Z,97275.00
2022-09-17T23:01:11.999Z,97266.00
2022-09-17T23:06:17.467Z,97272.00
2022-09-17T23:11:28.815Z,97266.00
2022-09-17T23:16:36.901Z,97266.00
2022-09-17T23:21:40.085Z,97264.00
2022-09-17T23:26:42.737Z,97264.00
2022-09-17T23:31:45.537Z,97270.00
2022-09-17T23:36:48.557Z,97272.00
2022-09-17T23:41:51.199Z,97256.00
2022-09-17T23:46:53.920Z,97257.00
2022-09-17T23:51:56.544Z,97256.00
2022-09-17T23:56:59.247Z,97257.00
